Snow Camp, North Carolina
Current Conditions -  °F | °C
As of 3:54 AM on Friday 19 Dec 2014 (Local Time) from KBUY Reporting Station
Overcast Overcast  
Wind Chill: 38°   Ceiling: 6500
Heat Index: 42°   Visibility: 10mi
Dew Point: 23°   Wind: 7mph
Humidity: 47%   Direction: 320°NW
Pressure: 30.1"   Gusts: NA
Location:  35.89°N, 79.43°W
Report Text: KBUY 190854Z AUTO 32006KT 10SM OVC065 06/M05 A3010 RMK AO2 SLP194 T00561050 50002
Loading
Personal Weather Stations






























Interactive Weather Map New forecast layout! Learn more

10-Day Weather Forecast

Advertisements
Track Severe Weather on mobile